Debec, Canada
Current Conditions -  °F | °C
As of 12:23 AM on Sunday 26 Oct 2014 (Local Time) from KHUL Reporting Station
Overcast Overcast  
Wind Chill: 39°   Ceiling: 500
Heat Index: 43°   Visibility: 10mi
Dew Point: 41°   Wind: 7mph
Humidity: 93%   Direction: 160°SSE
Pressure: 29.47"   Gusts: NA
Location:  46.07°N, 67.68°W
Report Text: KHUL 260323Z AUTO 16006KT 10SM OVC005 06/05 A2947 RMK AO2 T00610050
Loading
Personal Weather Stations






























Interactive Weather Map
Tropical Storm Tracking
New forecast layout! Learn more

10-Day Weather Forecast

Advertisements
Track Severe Weather on mobile